createdAt,value
2022-08-28T00:02:09.225Z,1.52
2022-08-28T00:04:37.264Z,2.00
2022-08-28T00:07:05.923Z,2.05
2022-08-28T00:09:33.779Z,2.33
2022-08-28T00:12:01.733Z,1.55
2022-08-28T00:14:29.896Z,2.22
2022-08-28T00:16:57.687Z,1.48
2022-08-28T00:19:27.292Z,1.73
2022-08-28T00:21:55.235Z,1.60
2022-08-28T00:24:23.008Z,1.60
2022-08-28T00:27:08.167Z,1.70
2022-08-28T00:29:36.107Z,1.80
2022-08-28T00:32:04.759Z,1.73
2022-08-28T00:34:33.926Z,1.98
2022-08-28T00:37:02.007Z,2.28
2022-08-28T00:39:29.868Z,2.17
2022-08-28T00:41:58.849Z,2.10
2022-08-28T00:44:28.926Z,1.73
2022-08-28T00:46:59.148Z,1.63
2022-08-28T00:49:30.661Z,1.70
2022-08-28T00:52:08.094Z,1.42
2022-08-28T00:54:39.347Z,1.58
2022-08-28T00:57:09.846Z,1.40
2022-08-28T00:59:39.396Z,1.75
2022-08-28T01:02:08.381Z,2.00
2022-08-28T01:04:37.280Z,1.80
2022-08-28T01:07:09.726Z,1.40
2022-08-28T01:09:41.471Z,1.58
2022-08-28T01:12:13.491Z,1.48
2022-08-28T01:14:45.723Z,1.80
2022-08-28T01:17:15.872Z,1.70
2022-08-28T01:19:55.449Z,1.55
2022-08-28T01:22:31.074Z,1.67
2022-08-28T01:25:03.283Z,1.30
2022-08-28T01:27:31.260Z,1.60
2022-08-28T01:29:59.160Z,1.60
2022-08-28T01:32:34.204Z,1.50
2022-08-28T01:35:02.451Z,1.30
2022-08-28T01:37:31.908Z,1.30
2022-08-28T01:40:02.205Z,1.98
2022-08-28T01:42:30.125Z,1.60
2022-08-28T01:44:58.141Z,1.90
2022-08-28T01:47:25.897Z,1.45
2022-08-28T01:49:53.651Z,1.58
2022-08-28T01:52:24.101Z,1.95
2022-08-28T01:54:54.405Z,1.80
2022-08-28T01:57:25.555Z,1.70
2022-08-28T01:59:54.434Z,1.48
2022-08-28T02:02:22.707Z,1.63
2022-08-28T02:04:50.640Z,1.70
2022-08-28T02:07:18.756Z,1.48
2022-08-28T02:09:46.769Z,1.92
2022-08-28T02:12:14.602Z,1.48
2022-08-28T02:14:43.783Z,1.83
2022-08-28T02:17:12.103Z,1.90
2022-08-28T02:19:39.904Z,1.70
2022-08-28T02:22:09.308Z,1.88
2022-08-28T02:24:37.374Z,1.60
2022-08-28T02:27:05.888Z,1.80
2022-08-28T02:29:34.106Z,2.40
2022-08-28T02:32:05.840Z,1.90
2022-08-28T02:34:34.049Z,2.13
2022-08-28T02:37:01.970Z,1.60
2022-08-28T02:39:30.070Z,1.85
2022-08-28T02:41:57.935Z,2.05
2022-08-28T02:44:25.872Z,1.98
2022-08-28T02:46:53.759Z,1.60
2022-08-28T02:49:24.020Z,1.73
2022-08-28T02:51:51.931Z,2.08
2022-08-28T02:54:21.157Z,2.03
2022-08-28T02:56:49.027Z,2.25
2022-08-28T02:59:16.831Z,2.05
2022-08-28T03:01:44.780Z,2.05
2022-08-28T03:04:12.663Z,2.22
2022-08-28T03:06:42.064Z,2.00
2022-08-28T03:09:10.425Z,1.77
2022-08-28T03:11:38.319Z,2.58
2022-08-28T03:14:06.139Z,2.25
2022-08-28T03:16:34.714Z,2.10
2022-08-28T03:19:03.376Z,2.40
2022-08-28T03:21:31.211Z,1.80
2022-08-28T03:24:00.433Z,2.13
2022-08-28T03:26:28.748Z,2.00
2022-08-28T03:28:57.602Z,2.60
2022-08-28T03:31:29.923Z,2.60
2022-08-28T03:33:58.283Z,2.53
2022-08-28T03:36:28.763Z,2.25
2022-08-28T03:39:00.097Z,2.42
2022-08-28T03:41:30.953Z,2.45
2022-08-28T03:44:00.424Z,3.17
2022-08-28T03:46:32.709Z,2.67
2022-08-28T03:49:01.040Z,3.10
2022-08-28T03:51:31.461Z,2.80
2022-08-28T03:54:00.826Z,2.60
2022-08-28T03:56:31.275Z,2.72
2022-08-28T03:59:01.682Z,3.20
2022-08-28T04:01:30.235Z,3.85
2022-08-28T04:03:58.353Z,2.88
2022-08-28T04:06:27.051Z,2.80
2022-08-28T04:08:55.342Z,3.30
2022-08-28T04:11:27.987Z,3.00
2022-08-28T04:13:57.815Z,3.50
2022-08-28T04:16:25.604Z,3.28
2022-08-28T04:18:53.327Z,3.13
2022-08-28T04:21:23.503Z,3.25
2022-08-28T04:23:52.076Z,3.80
2022-08-28T04:26:21.910Z,3.22
2022-08-28T04:28:50.970Z,3.67
2022-08-28T04:31:31.772Z,3.88
2022-08-28T04:34:01.184Z,3.22
2022-08-28T04:36:29.821Z,3.53
2022-08-28T04:38:58.547Z,3.53
2022-08-28T04:41:26.687Z,3.60
2022-08-28T04:43:56.811Z,3.28
2022-08-28T04:46:26.499Z,3.70
2022-08-28T04:48:59.517Z,3.75
2022-08-28T04:51:27.638Z,3.53
2022-08-28T04:53:55.427Z,3.85
2022-08-28T04:56:23.469Z,3.50
2022-08-28T04:58:51.450Z,4.10
2022-08-28T05:01:21.408Z,3.83
2022-08-28T05:03:54.605Z,4.03
2022-08-28T05:06:22.863Z,3.67
2022-08-28T05:08:50.829Z,4.03
2022-08-28T05:11:32.782Z,3.75
2022-08-28T05:14:04.346Z,3.95
2022-08-28T05:16:32.834Z,4.07
2022-08-28T05:19:02.500Z,3.53
2022-08-28T05:21:30.329Z,3.80
2022-08-28T05:23:59.249Z,3.45
2022-08-28T05:26:28.415Z,4.13
2022-08-28T05:28:59.519Z,3.95
2022-08-28T05:31:29.736Z,4.20
2022-08-28T05:34:00.876Z,3.78
2022-08-28T05:36:33.347Z,3.88
2022-08-28T05:39:07.607Z,3.78
2022-08-28T05:41:35.923Z,3.55
2022-08-28T05:44:06.379Z,3.92
2022-08-28T05:46:44.834Z,4.07
2022-08-28T05:49:13.471Z,4.15
2022-08-28T05:51:43.622Z,4.82
2022-08-28T05:54:11.774Z,4.47
2022-08-28T05:56:42.041Z,3.50
2022-08-28T05:59:11.253Z,4.22
2022-08-28T06:01:41.532Z,3.90
2022-08-28T06:04:13.115Z,4.10
2022-08-28T06:06:43.053Z,3.90
2022-08-28T06:09:13.930Z,4.38
2022-08-28T06:11:46.111Z,3.97
2022-08-28T06:14:16.602Z,4.20
2022-08-28T06:16:48.141Z,3.88
2022-08-28T06:19:16.936Z,3.70
2022-08-28T06:21:48.184Z,4.32
2022-08-28T06:24:15.971Z,4.15
2022-08-28T06:26:44.364Z,4.25
2022-08-28T06:29:15.731Z,3.85
2022-08-28T06:31:43.714Z,3.60
2022-08-28T06:34:11.641Z,3.97
2022-08-28T06:36:42.078Z,3.95
2022-08-28T06:39:14.708Z,3.38
2022-08-28T06:41:43.786Z,3.47
2022-08-28T06:44:13.491Z,3.50
2022-08-28T06:46:42.007Z,3.28
2022-08-28T06:49:10.288Z,3.58
2022-08-28T06:51:38.385Z,3.47
2022-08-28T06:54:07.350Z,3.33
2022-08-28T06:56:36.861Z,3.03
2022-08-28T06:59:05.218Z,3.55
2022-08-28T07:01:35.319Z,3.50
2022-08-28T07:04:06.437Z,3.53
2022-08-28T07:06:36.011Z,3.17
2022-08-28T07:09:06.201Z,3.80
2022-08-28T07:11:36.710Z,3.72
2022-08-28T07:14:06.059Z,3.47
2022-08-28T07:16:38.116Z,2.92
2022-08-28T07:19:07.270Z,2.85
2022-08-28T07:21:38.689Z,3.22
2022-08-28T07:24:08.436Z,3.13
2022-08-28T07:26:37.991Z,2.78
2022-08-28T07:29:10.812Z,3.00
2022-08-28T07:31:45.667Z,2.70
2022-08-28T07:34:15.079Z,2.90
2022-08-28T07:36:44.590Z,2.75
2022-08-28T07:39:14.128Z,2.90
2022-08-28T07:41:43.923Z,3.22
2022-08-28T07:44:32.347Z,3.47
2022-08-28T07:47:02.309Z,3.22
2022-08-28T07:49:30.098Z,2.70
2022-08-28T07:51:58.358Z,3.00
2022-08-28T07:54:26.166Z,3.33
2022-08-28T07:56:55.856Z,2.80
2022-08-28T07:59:23.870Z,2.75
2022-08-28T08:01:53.042Z,3.55
2022-08-28T08:04:22.517Z,3.30
2022-08-28T08:06:57.010Z,2.55
2022-08-28T08:09:27.324Z,3.15
2022-08-28T08:11:58.291Z,2.78
2022-08-28T08:14:28.708Z,2.85
2022-08-28T08:16:56.511Z,2.92
2022-08-28T08:19:24.341Z,2.78
2022-08-28T08:21:55.087Z,2.75
2022-08-28T08:24:26.074Z,3.05
2022-08-28T08:26:59.927Z,3.22
2022-08-28T08:29:32.292Z,3.45
2022-08-28T08:32:05.249Z,3.15
2022-08-28T08:34:34.712Z,2.75
2022-08-28T08:37:02.612Z,2.80
2022-08-28T08:39:31.665Z,2.65
2022-08-28T08:42:01.700Z,3.15
2022-08-28T08:44:34.437Z,3.95
2022-08-28T08:47:14.598Z,3.03
2022-08-28T08:49:50.724Z,2.85
2022-08-28T08:52:36.343Z,3.05
2022-08-28T08:55:24.596Z,2.22
2022-08-28T08:58:02.055Z,2.70
2022-08-28T09:00:34.340Z,3.20
2022-08-28T09:03:07.560Z,2.30
2022-08-28T09:05:45.127Z,2.45
2022-08-28T09:08:23.050Z,2.60
2022-08-28T09:11:00.044Z,2.70
2022-08-28T09:13:39.715Z,2.65
2022-08-28T09:16:17.624Z,3.38
2022-08-28T09:18:46.036Z,3.03
2022-08-28T09:21:29.028Z,2.80
2022-08-28T09:24:05.736Z,2.58
2022-08-28T09:26:35.628Z,2.92
2022-08-28T09:29:06.399Z,2.70
2022-08-28T09:31:38.174Z,2.65
2022-08-28T09:34:25.481Z,2.75
2022-08-28T09:36:54.952Z,2.38
2022-08-28T09:39:24.757Z,2.80
2022-08-28T09:42:33.086Z,2.72
2022-08-28T09:45:09.354Z,2.65
2022-08-28T09:47:49.058Z,2.60
2022-08-28T09:50:31.225Z,2.40
2022-08-28T09:53:15.227Z,2.65
2022-08-28T09:55:51.879Z,2.30
2022-08-28T09:58:22.170Z,2.38
2022-08-28T10:00:53.826Z,2.60
2022-08-28T10:03:28.261Z,2.60
2022-08-28T10:06:05.226Z,2.90
2022-08-28T10:08:55.313Z,2.30
2022-08-28T10:11:30.779Z,3.10
2022-08-28T10:14:07.966Z,2.50
2022-08-28T10:16:47.091Z,2.60
2022-08-28T10:19:29.405Z,2.70
2022-08-28T10:22:05.192Z,2.80
2022-08-28T10:24:48.583Z,2.10
2022-08-28T10:27:31.592Z,2.38
2022-08-28T10:30:12.506Z,2.40
2022-08-28T10:33:12.568Z,2.28
2022-08-28T10:35:52.076Z,2.75
2022-08-28T10:38:29.750Z,2.60
2022-08-28T10:41:03.453Z,2.70
2022-08-28T10:43:34.641Z,2.08
2022-08-28T10:46:06.581Z,2.25
2022-08-28T10:48:41.090Z,2.60
2022-08-28T10:51:15.369Z,2.50
2022-08-28T10:53:47.037Z,2.10
2022-08-28T10:56:18.896Z,2.08
2022-08-28T10:58:50.863Z,2.15
2022-08-28T11:01:27.130Z,1.95
2022-08-28T11:03:57.019Z,2.28
2022-08-28T11:06:33.362Z,2.55
2022-08-28T11:09:24.687Z,2.20
2022-08-28T11:12:01.541Z,2.22
2022-08-28T11:14:33.822Z,3.03
2022-08-28T11:17:06.579Z,2.10
2022-08-28T11:20:00.731Z,2.65
2022-08-28T11:22:35.615Z,2.10
2022-08-28T11:25:12.152Z,2.40
2022-08-28T11:27:41.257Z,2.53
2022-08-28T11:30:33.021Z,2.22
2022-08-28T11:33:09.590Z,2.13
2022-08-28T11:35:45.047Z,2.53
2022-08-28T11:38:52.444Z,2.85
2022-08-28T11:41:22.732Z,2.63
2022-08-28T11:43:52.387Z,2.60
2022-08-28T11:46:31.281Z,2.25
2022-08-28T11:49:01.077Z,2.20
2022-08-28T11:51:54.059Z,2.10
2022-08-28T11:54:41.182Z,2.55
2022-08-28T11:57:14.772Z,3.05
2022-08-28T12:00:02.951Z,3.15
2022-08-28T12:03:12.893Z,3.00
2022-08-28T12:05:49.892Z,2.55
2022-08-28T12:09:09.539Z,3.10
2022-08-28T12:11:58.292Z,2.80
2022-08-28T12:15:08.514Z,2.90
2022-08-28T12:18:01.097Z,2.17
2022-08-28T12:21:00.872Z,2.20
2022-08-28T12:23:43.245Z,2.28
2022-08-28T12:26:22.284Z,2.30
2022-08-28T12:28:55.010Z,2.42
2022-08-28T12:32:04.706Z,2.42
2022-08-28T12:34:44.403Z,2.20
2022-08-28T12:37:47.561Z,2.55
2022-08-28T12:40:24.048Z,2.47
2022-08-28T12:42:55.879Z,2.17
2022-08-28T12:45:32.334Z,2.58
2022-08-28T12:48:04.207Z,2.67
2022-08-28T12:50:35.830Z,2.42
2022-08-28T12:53:06.616Z,2.50
2022-08-28T12:55:35.332Z,2.00
2022-08-28T12:58:03.020Z,2.30
2022-08-28T13:00:35.584Z,1.92
2022-08-28T13:03:08.163Z,2.13
2022-08-28T13:05:39.687Z,2.40
2022-08-28T13:08:10.743Z,2.05
2022-08-28T13:10:41.818Z,2.33
2022-08-28T13:13:19.437Z,2.20
2022-08-28T13:15:53.414Z,2.50
2022-08-28T13:18:47.346Z,2.28
2022-08-28T13:21:34.316Z,2.20
2022-08-28T13:24:40.327Z,2.53
2022-08-28T13:27:18.906Z,2.40
2022-08-28T13:29:59.689Z,2.42
2022-08-28T13:32:31.421Z,1.55
2022-08-28T13:35:16.613Z,1.90
2022-08-28T13:37:48.008Z,2.30
2022-08-28T13:40:45.916Z,1.98
2022-08-28T13:43:11.299Z,1.67
2022-08-28T13:45:43.657Z,2.33
2022-08-28T13:48:14.061Z,1.70
2022-08-28T13:50:46.493Z,1.98
2022-08-28T13:53:15.390Z,2.05
2022-08-28T13:55:43.357Z,2.05
2022-08-28T13:58:11.448Z,1.80
2022-08-28T14:00:44.461Z,1.98
2022-08-28T14:03:31.542Z,2.05
2022-08-28T14:05:59.379Z,2.03
2022-08-28T14:08:27.267Z,1.90
2022-08-28T14:10:55.342Z,2.03
2022-08-28T14:13:27.418Z,2.00
2022-08-28T14:15:55.811Z,1.77
2022-08-28T14:18:25.759Z,1.80
2022-08-28T14:20:53.845Z,2.00
2022-08-28T14:23:22.986Z,1.98
2022-08-28T14:25:50.963Z,1.88
2022-08-28T14:28:19.173Z,1.80
2022-08-28T14:30:48.896Z,1.83
2022-08-28T14:33:20.692Z,1.88
2022-08-28T14:35:50.158Z,2.10
2022-08-28T14:38:18.894Z,1.95
2022-08-28T14:40:46.948Z,1.67
2022-08-28T14:43:15.916Z,1.70
2022-08-28T14:45:45.800Z,1.77
2022-08-28T14:48:14.503Z,2.05
2022-08-28T14:50:44.021Z,2.03
2022-08-28T14:53:13.888Z,1.73
2022-08-28T14:55:44.244Z,1.77
2022-08-28T14:58:12.986Z,2.25
2022-08-28T15:00:42.135Z,2.15
2022-08-28T15:03:10.717Z,1.90
2022-08-28T15:05:38.715Z,1.70
2022-08-28T15:08:09.300Z,1.73
2022-08-28T15:10:40.070Z,1.65
2022-08-28T15:13:09.921Z,1.55
2022-08-28T15:15:39.363Z,1.92
2022-08-28T15:18:07.460Z,2.40
2022-08-28T15:20:38.996Z,1.80
2022-08-28T15:23:06.874Z,1.77
2022-08-28T15:25:34.932Z,2.13
2022-08-28T15:28:04.899Z,1.80
2022-08-28T15:30:33.332Z,1.77
2022-08-28T15:33:01.279Z,1.80
2022-08-28T15:35:29.306Z,1.60
2022-08-28T15:37:57.935Z,1.60
2022-08-28T15:40:43.482Z,2.17
2022-08-28T15:43:12.914Z,1.92
2022-08-28T15:45:42.156Z,1.58
2022-08-28T15:48:11.975Z,1.60
2022-08-28T15:50:40.035Z,1.92
2022-08-28T15:53:09.360Z,1.55
2022-08-28T15:55:38.343Z,1.60
2022-08-28T15:58:08.852Z,1.48
2022-08-28T16:00:44.049Z,1.48
2022-08-28T16:03:12.122Z,1.90
2022-08-28T16:05:40.648Z,1.75
2022-08-28T16:08:10.633Z,1.85
2022-08-28T16:10:39.218Z,1.95
2022-08-28T16:13:07.265Z,1.50
2022-08-28T16:15:35.572Z,1.92
2022-08-28T16:18:08.785Z,2.22
2022-08-28T16:20:37.254Z,1.73
2022-08-28T16:23:05.118Z,1.50
2022-08-28T16:25:32.944Z,1.73
2022-08-28T16:28:00.773Z,1.48
2022-08-28T16:30:28.683Z,1.90
2022-08-28T16:32:56.542Z,1.80
2022-08-28T16:35:26.583Z,1.73
2022-08-28T16:37:54.956Z,1.70
2022-08-28T16:40:23.405Z,1.92
2022-08-28T16:42:52.242Z,1.60
2022-08-28T16:45:20.870Z,1.70
2022-08-28T16:47:49.212Z,1.38
2022-08-28T16:50:18.266Z,2.22
2022-08-28T16:52:47.789Z,2.13
2022-08-28T16:55:16.088Z,1.52
2022-08-28T16:57:44.090Z,2.00
2022-08-28T17:00:14.029Z,1.80
2022-08-28T17:02:42.815Z,2.17
2022-08-28T17:05:11.484Z,2.42
2022-08-28T17:07:39.794Z,1.98
2022-08-28T17:10:12.074Z,1.98
2022-08-28T17:12:39.984Z,1.52
2022-08-28T17:15:09.473Z,1.75
2022-08-28T17:17:39.752Z,1.55
2022-08-28T17:20:29.140Z,1.35
2022-08-28T17:22:56.127Z,1.90
2022-08-28T17:25:26.284Z,1.70
2022-08-28T17:27:54.101Z,1.38
2022-08-28T17:30:22.481Z,1.73
2022-08-28T17:32:51.952Z,1.88
2022-08-28T17:35:20.268Z,1.73
2022-08-28T17:37:50.661Z,1.90
2022-08-28T17:40:19.299Z,1.42
2022-08-28T17:42:52.787Z,1.83
2022-08-28T17:45:21.429Z,1.60
2022-08-28T17:47:49.580Z,1.25
2022-08-28T17:50:19.156Z,1.75
2022-08-28T17:52:47.113Z,1.58
2022-08-28T17:55:16.086Z,1.70
2022-08-28T17:57:46.534Z,1.30
2022-08-28T18:00:18.221Z,1.83
2022-08-28T18:02:47.118Z,1.75
2022-08-28T18:05:15.747Z,1.63
2022-08-28T18:07:43.666Z,2.20
2022-08-28T18:10:12.103Z,1.73
2022-08-28T18:12:42.486Z,1.58
2022-08-28T18:15:13.716Z,1.42
2022-08-28T18:17:50.386Z,1.42
2022-08-28T18:20:19.620Z,2.15
2022-08-28T18:22:47.901Z,1.23
2022-08-28T18:25:30.800Z,1.92
2022-08-28T18:28:04.831Z,1.55
2022-08-28T18:30:33.209Z,1.70
2022-08-28T18:33:03.405Z,1.80
2022-08-28T18:35:32.331Z,1.45
2022-08-28T18:38:01.399Z,2.00
2022-08-28T18:40:30.391Z,1.70
2022-08-28T18:42:58.758Z,1.75
2022-08-28T18:45:27.507Z,2.10
2022-08-28T18:47:55.748Z,1.70
2022-08-28T18:50:26.271Z,1.85
2022-08-28T18:52:54.982Z,2.00
2022-08-28T18:55:25.206Z,1.85
2022-08-28T18:57:53.092Z,1.63
2022-08-28T19:00:23.072Z,1.48
2022-08-28T19:02:51.369Z,1.85
2022-08-28T19:05:20.063Z,1.90
2022-08-28T19:07:50.340Z,1.90
2022-08-28T19:10:32.946Z,1.90
2022-08-28T19:13:02.243Z,2.00
2022-08-28T19:15:31.182Z,2.35
2022-08-28T19:18:00.390Z,1.90
2022-08-28T19:20:29.385Z,1.75
2022-08-28T19:22:59.266Z,1.98
2022-08-28T19:25:32.722Z,1.88
2022-08-28T19:28:02.128Z,2.00
2022-08-28T19:30:33.026Z,2.17
2022-08-28T19:33:02.341Z,2.47
2022-08-28T19:35:30.479Z,1.92
2022-08-28T19:37:59.634Z,1.88
2022-08-28T19:40:31.519Z,1.90
2022-08-28T19:43:00.617Z,1.75
2022-08-28T19:45:31.232Z,2.38
2022-08-28T19:47:59.291Z,2.53
2022-08-28T19:50:27.412Z,2.25
2022-08-28T19:52:55.334Z,2.22
2022-08-28T19:55:27.603Z,2.00
2022-08-28T19:57:55.943Z,2.25
2022-08-28T20:00:28.515Z,2.00
2022-08-28T20:02:57.371Z,2.20
2022-08-28T20:05:26.232Z,1.85
2022-08-28T20:07:54.340Z,2.60
2022-08-28T20:10:22.220Z,2.00
2022-08-28T20:12:51.374Z,1.95
2022-08-28T20:15:20.451Z,1.83
2022-08-28T20:17:49.912Z,1.92
2022-08-28T20:20:19.748Z,2.10
2022-08-28T20:22:47.698Z,2.13
2022-08-28T20:25:18.083Z,2.70
2022-08-28T20:27:45.901Z,2.95
2022-08-28T20:30:15.282Z,3.00
2022-08-28T20:32:43.251Z,2.30
2022-08-28T20:35:12.938Z,2.20
2022-08-28T20:37:45.598Z,2.17
2022-08-28T20:40:14.621Z,2.17
2022-08-28T20:42:42.569Z,2.03
2022-08-28T20:45:11.376Z,2.13
2022-08-28T20:47:40.679Z,2.08
2022-08-28T20:50:09.135Z,2.63
2022-08-28T20:52:37.022Z,2.75
2022-08-28T20:55:05.413Z,2.10
2022-08-28T20:57:33.246Z,2.08
2022-08-28T21:00:05.281Z,1.90
2022-08-28T21:02:33.971Z,2.28
2022-08-28T21:05:03.441Z,2.38
2022-08-28T21:07:33.379Z,2.30
2022-08-28T21:10:05.721Z,1.98
2022-08-28T21:12:36.204Z,2.20
2022-08-28T21:15:04.977Z,2.10
2022-08-28T21:17:32.734Z,2.20
2022-08-28T21:20:02.940Z,2.40
2022-08-28T21:22:35.833Z,2.20
2022-08-28T21:25:05.312Z,2.50
2022-08-28T21:27:33.113Z,1.77
2022-08-28T21:30:01.671Z,2.28
2022-08-28T21:32:30.916Z,2.40
2022-08-28T21:35:00.605Z,1.88
2022-08-28T21:37:28.974Z,1.70
2022-08-28T21:39:59.149Z,1.95
2022-08-28T21:42:27.389Z,2.00
2022-08-28T21:44:55.454Z,2.45
2022-08-28T21:47:24.670Z,2.30
2022-08-28T21:49:54.143Z,2.10
2022-08-28T21:52:23.759Z,2.28
2022-08-28T21:54:56.690Z,2.10
2022-08-28T21:57:25.869Z,2.10
2022-08-28T21:59:53.882Z,2.55
2022-08-28T22:02:22.030Z,2.35
2022-08-28T22:04:50.036Z,2.15
2022-08-28T22:07:19.403Z,2.25
2022-08-28T22:09:47.766Z,1.92
2022-08-28T22:12:16.371Z,1.73
2022-08-28T22:14:45.964Z,1.98
2022-08-28T22:17:15.024Z,1.83
2022-08-28T22:19:43.019Z,1.50
2022-08-28T22:22:34.147Z,1.85
2022-08-28T22:25:01.961Z,1.73
2022-08-28T22:27:31.833Z,1.98
2022-08-28T22:30:01.099Z,1.60
2022-08-28T22:32:29.110Z,1.90
2022-08-28T22:34:56.910Z,2.10
2022-08-28T22:37:25.740Z,1.95
2022-08-28T22:39:53.743Z,1.92
2022-08-28T22:42:21.588Z,1.90
2022-08-28T22:44:49.329Z,1.88
2022-08-28T22:47:19.002Z,1.70
2022-08-28T22:49:46.960Z,1.60
2022-08-28T22:52:15.320Z,1.80
2022-08-28T22:54:43.617Z,1.85
2022-08-28T22:57:11.668Z,1.60
2022-08-28T22:59:39.603Z,1.65
2022-08-28T23:02:07.730Z,2.00
2022-08-28T23:04:37.175Z,2.03
2022-08-28T23:07:05.436Z,1.95
2022-08-28T23:09:36.101Z,1.80
2022-08-28T23:12:04.664Z,1.67
2022-08-28T23:14:32.610Z,1.80
2022-08-28T23:17:01.069Z,2.00
2022-08-28T23:19:29.008Z,1.75
2022-08-28T23:21:59.804Z,1.85
2022-08-28T23:24:27.775Z,1.65
2022-08-28T23:26:55.567Z,1.80
2022-08-28T23:29:23.299Z,2.03
2022-08-28T23:31:51.088Z,1.90
2022-08-28T23:34:18.860Z,2.03
2022-08-28T23:36:46.716Z,2.10
2022-08-28T23:39:16.003Z,1.80
2022-08-28T23:41:43.873Z,1.90
2022-08-28T23:44:11.734Z,1.80
2022-08-28T23:46:41.713Z,1.60
2022-08-28T23:49:11.009Z,1.90
2022-08-28T23:51:38.829Z,2.03
2022-08-28T23:54:07.055Z,1.95
2022-08-28T23:56:36.738Z,2.22
2022-08-28T23:59:05.169Z,1.65
